Terminal Aerodrome Forecast
Issued by NWS

Home | Current Version | Previous Version | Text Only | Print | Product List | Glossary On
Versions: 1 2 3 4 5 6 7 8 9 10 11 12
000
FTUS42 KMLB 201700 RRA
TAFSFB
TAF
KSFB 201745Z 2018/2112 24003KT P6SM SKC
     FM202200 08004KT P6SM BKN080 OVC120
     FM210800 VRB03KT 5SM BR BKN025 OVC060=

USA.gov is the U.S. government's official web portal to all federal, state and local government web resources and services.